Time;durP1;ratioP1;P1;durP2;ratioP2;P2;SDS_P1;SDS_P2;PMS_P1;PMS_P2;Temp;Humidity;BMP_temperature;BMP_pressure;BME280_temperature;BME280_humidity;BME280_pressure;Samples;Min_cycle;Max_cycle;Signal;HPM_P1;HPM_P2
2021/06/10 00:01:08;;;;;;;8.10;6.90;;;;;;;-139.38;100.00;63230.50;5071763;28;20204;-70
2021/06/10 00:04:34;;;;;;;9.03;7.00;;;;;;;-139.38;100.00;63230.50;5072925;28;20267;-69
2021/06/10 00:07:59;;;;;;;12.63;7.43;;;;;;;-139.38;100.00;63230.50;5060713;28;20207;-70
2021/06/10 00:11:26;;;;;;;8.20;6.73;;;;;;;-139.38;100.00;63230.50;5064796;28;20259;-72
2021/06/10 00:14:52;;;;;;;7.77;6.63;;;;;;;-139.38;100.00;63230.50;5074038;28;20283;-70
2021/06/10 00:18:18;;;;;;;8.70;6.77;;;;;;;-139.38;100.00;63230.50;5061417;28;20201;-72
2021/06/10 00:21:43;;;;;;;10.63;7.63;;;;;;;-139.38;100.00;63230.50;5067205;28;20204;-71
2021/06/10 00:25:09;;;;;;;8.17;6.83;;;;;;;-139.38;100.00;63230.50;5078288;28;20220;-73
2021/06/10 00:28:35;;;;;;;8.70;7.40;;;;;;;-139.38;100.00;63230.50;5088069;28;20657;-71
2021/06/10 00:32:01;;;;;;;9.07;7.33;;;;;;;-139.38;100.00;63230.50;5068692;28;20205;-73
2021/06/10 00:35:27;;;;;;;9.83;6.87;;;;;;;-139.38;100.00;63230.50;5064607;28;20205;-73
2021/06/10 00:38:52;;;;;;;9.50;7.40;;;;;;;-139.38;100.00;63230.50;5064735;28;20198;-72
2021/06/10 00:42:18;;;;;;;7.10;6.30;;;;;;;-139.38;100.00;63230.50;5073270;28;20212;-71
2021/06/10 00:45:43;;;;;;;11.60;7.43;;;;;;;-139.38;100.00;63230.50;5062262;28;20222;-71
2021/06/10 00:49:10;;;;;;;10.00;7.70;;;;;;;-139.38;100.00;63230.50;5058178;28;20212;-72
2021/06/10 00:52:37;;;;;;;11.67;7.67;;;;;;;-139.38;100.00;63230.50;5074972;28;20702;-71
2021/06/10 00:56:05;;;;;;;8.40;7.27;;;;;;;-139.38;100.00;63230.50;5071389;28;20221;-71
2021/06/10 00:59:30;;;;;;;10.53;8.10;;;;;;;-139.38;100.00;63230.50;5060624;28;20201;-71
2021/06/10 01:02:55;;;;;;;10.70;7.80;;;;;;;-139.38;100.00;63230.50;5072635;28;20204;-70
2021/06/10 01:06:24;;;;;;;8.80;7.33;;;;;;;-139.38;100.00;63230.50;5062810;28;20277;-70
2021/06/10 01:09:55;;;;;;;10.30;8.10;;;;;;;-139.38;100.00;63230.50;5056103;28;20209;-70
2021/06/10 01:13:25;;;;;;;13.10;8.37;;;;;;;-139.38;100.00;63230.50;5078294;28;20233;-70
2021/06/10 01:16:52;;;;;;;9.90;8.07;;;;;;;-139.38;100.00;63230.50;5056556;28;20201;-70
2021/06/10 01:20:22;;;;;;;10.37;8.60;;;;;;;-139.38;100.00;63230.50;5071734;28;20197;-70
2021/06/10 01:24:02;;;;;;;8.63;7.43;;;;;;;-139.38;100.00;63230.50;5067134;28;20267;-71
2021/06/10 01:27:32;;;;;;;10.47;8.33;;;;;;;-139.38;100.00;63230.50;5064787;28;20203;-71
2021/06/10 01:31:00;;;;;;;10.70;8.57;;;;;;;-139.38;100.00;63230.50;5068126;28;20639;-71
2021/06/10 01:34:29;;;;;;;11.63;9.07;;;;;;;-139.38;100.00;63230.50;5082114;28;20242;-71
2021/06/10 01:37:54;;;;;;;10.23;9.10;;;;;;;-139.38;100.00;63230.50;5066924;28;20254;-71
2021/06/10 01:41:22;;;;;;;11.60;8.50;;;;;;;-139.38;100.00;63230.50;5062359;28;20227;-71
2021/06/10 01:44:49;;;;;;;10.83;8.60;;;;;;;-139.38;100.00;63230.50;5066494;28;20229;-71
2021/06/10 01:48:16;;;;;;;13.87;8.70;;;;;;;-139.38;100.00;63230.50;5071969;28;20211;-71
2021/06/10 01:51:42;;;;;;;13.30;8.73;;;;;;;-139.38;100.00;63230.50;5075963;28;20232;-71
2021/06/10 01:55:08;;;;;;;12.43;9.73;;;;;;;-139.38;100.00;63230.50;5078427;28;20231;-71
2021/06/10 01:58:34;;;;;;;9.93;8.70;;;;;;;-139.38;100.00;63230.50;5071032;28;20202;-70
2021/06/10 02:02:01;;;;;;;12.27;9.10;;;;;;;-139.38;100.00;63230.50;5060601;28;20204;-71
2021/06/10 02:05:27;;;;;;;12.33;9.13;;;;;;;-139.38;100.00;63230.50;5075765;28;20545;-70
2021/06/10 02:08:52;;;;;;;10.57;8.53;;;;;;;-139.38;100.00;63230.50;5064210;28;20231;-70
2021/06/10 02:12:17;;;;;;;11.10;8.27;;;;;;;-139.38;100.00;63230.50;5072013;28;20233;-70
2021/06/10 02:15:44;;;;;;;12.37;9.03;;;;;;;-139.38;100.00;63230.50;5068092;28;20206;-71
2021/06/10 02:19:11;;;;;;;12.43;8.50;;;;;;;-139.38;100.00;63230.50;5069465;28;20662;-70
2021/06/10 02:22:37;;;;;;;11.27;8.77;;;;;;;-139.38;100.00;63230.50;5090092;28;20205;-71
2021/06/10 02:26:03;;;;;;;11.67;9.43;;;;;;;-139.38;100.00;63230.50;5067507;28;20202;-71
2021/06/10 02:29:28;;;;;;;12.20;8.97;;;;;;;-139.38;100.00;63230.50;5062417;28;20564;-71
2021/06/10 02:32:53;;;;;;;13.10;9.97;;;;;;;-139.38;100.00;63230.50;5079985;28;20734;-71
2021/06/10 02:36:20;;;;;;;10.00;8.73;;;;;;;-139.38;100.00;63230.50;5069177;28;20225;-71
2021/06/10 02:39:48;;;;;;;12.00;9.67;;;;;;;-139.38;100.00;63230.50;5063159;28;20202;-70
2021/06/10 02:43:14;;;;;;;12.97;9.10;;;;;;;-139.38;100.00;63230.50;5066417;28;20231;-71
2021/06/10 02:46:41;;;;;;;13.97;8.80;;;;;;;-139.38;100.00;63230.50;5058794;28;20214;-71
2021/06/10 02:50:08;;;;;;;14.00;9.63;;;;;;;-139.38;100.00;63230.50;5062704;28;20205;-70
2021/06/10 02:53:35;;;;;;;11.63;9.73;;;;;;;-139.38;100.00;63230.50;5069553;28;20748;-70
2021/06/10 02:57:03;;;;;;;13.17;9.17;;;;;;;-139.38;100.00;63230.50;5066676;28;20205;-70
2021/06/10 03:00:30;;;;;;;13.60;9.47;;;;;;;-139.38;100.00;63230.50;5064115;28;20672;-70
2021/06/10 03:03:56;;;;;;;12.47;9.70;;;;;;;-139.38;100.00;63230.50;5073784;28;20282;-70
2021/06/10 03:07:22;;;;;;;12.87;9.73;;;;;;;-139.38;100.00;63230.50;5063164;28;20206;-70
2021/06/10 03:10:49;;;;;;;12.73;8.93;;;;;;;-139.38;100.00;63230.50;5059908;28;20213;-70
2021/06/10 03:14:16;;;;;;;13.20;9.77;;;;;;;-139.38;100.00;63230.50;5060208;28;20236;-70
2021/06/10 03:17:44;;;;;;;11.90;9.00;;;;;;;-139.38;100.00;63230.50;5075752;28;20302;-70
2021/06/10 03:21:10;;;;;;;11.60;9.60;;;;;;;-139.38;100.00;63230.50;5067545;28;20252;-70
2021/06/10 03:24:35;;;;;;;13.47;9.87;;;;;;;-139.38;100.00;63230.50;5061577;28;20237;-70
2021/06/10 03:28:04;;;;;;;10.83;9.13;;;;;;;-139.38;100.00;63230.50;5068199;28;20658;-70
2021/06/10 03:31:29;;;;;;;11.23;8.77;;;;;;;-139.38;100.00;63230.50;5073859;28;20227;-70
2021/06/10 03:34:55;;;;;;;14.73;9.70;;;;;;;-139.38;100.00;63230.50;5064881;28;20219;-71
2021/06/10 03:38:21;;;;;;;12.87;9.70;;;;;;;-139.38;100.00;63230.50;5075839;28;20649;-70
2021/06/10 03:41:48;;;;;;;12.80;9.83;;;;;;;-139.38;100.00;63230.50;5068108;28;20205;-70
2021/06/10 03:45:16;;;;;;;14.73;10.03;;;;;;;-139.38;100.00;63230.50;5075026;28;20205;-71
2021/06/10 03:48:42;;;;;;;14.37;9.80;;;;;;;-139.38;100.00;63230.50;5065677;28;20288;-71
2021/06/10 03:52:10;;;;;;;15.80;9.53;;;;;;;-139.38;100.00;63230.50;5072144;28;20230;-70
2021/06/10 03:55:36;;;;;;;11.90;9.83;;;;;;;-139.38;100.00;63230.50;5062429;28;20261;-74
2021/06/10 03:59:01;;;;;;;12.77;9.60;;;;;;;-139.38;100.00;63230.50;5069022;28;20346;-74
2021/06/10 04:02:28;;;;;;;13.13;10.67;;;;;;;-139.38;100.00;63230.50;5075531;28;20235;-77
2021/06/10 04:05:53;;;;;;;12.60;9.93;;;;;;;-139.38;100.00;63230.50;5066259;28;20217;-74
2021/06/10 04:09:19;;;;;;;12.50;9.90;;;;;;;-139.38;100.00;63230.50;5066233;28;20212;-72
2021/06/10 04:12:44;;;;;;;13.13;10.00;;;;;;;-139.38;100.00;63230.50;5073197;28;20276;-69
2021/06/10 04:16:10;;;;;;;14.63;10.37;;;;;;;-139.38;100.00;63230.50;5065671;28;20205;-75
2021/06/10 04:19:36;;;;;;;13.73;10.50;;;;;;;-139.38;100.00;63230.50;5075412;28;20208;-73
2021/06/10 04:23:02;;;;;;;13.30;10.63;;;;;;;-139.38;100.00;63230.50;5061517;28;20244;-69
2021/06/10 04:26:27;;;;;;;13.83;10.47;;;;;;;-139.38;100.00;63230.50;5065267;28;20653;-73
2021/06/10 04:29:52;;;;;;;13.80;10.30;;;;;;;-139.38;100.00;63230.50;5095328;22;20604;-69
2021/06/10 04:33:18;;;;;;;12.50;10.33;;;;;;;-139.38;100.00;63230.50;5057556;28;20221;-69
2021/06/10 04:36:44;;;;;;;14.30;10.70;;;;;;;-139.38;100.00;63230.50;5063798;28;20202;-69
2021/06/10 04:40:10;;;;;;;18.33;11.63;;;;;;;-139.38;100.00;63230.50;5062125;28;20749;-69
2021/06/10 04:43:36;;;;;;;12.57;10.43;;;;;;;-139.38;100.00;63230.50;5045478;28;20640;-71
2021/06/10 04:47:04;;;;;;;12.37;10.43;;;;;;;-139.38;100.00;63230.50;5050492;28;20210;-69
2021/06/10 04:50:31;;;;;;;14.97;9.93;;;;;;;-139.38;100.00;63230.50;5050745;28;20750;-68
2021/06/10 04:53:58;;;;;;;15.97;9.53;;;;;;;-139.38;100.00;63230.50;5046480;28;20226;-70
2021/06/10 04:57:23;;;;;;;11.70;9.30;;;;;;;-139.38;100.00;63230.50;5051596;28;20214;-69
2021/06/10 05:00:48;;;;;;;12.20;9.33;;;;;;;-139.38;100.00;63230.50;5049316;28;20205;-69
2021/06/10 05:04:14;;;;;;;15.27;9.57;;;;;;;-139.38;100.00;63230.50;5048627;28;20207;-69
2021/06/10 05:07:40;;;;;;;10.73;8.63;;;;;;;-139.38;100.00;63230.50;5051732;28;20613;-69
2021/06/10 05:11:07;;;;;;;11.43;8.90;;;;;;;-139.38;100.00;63230.50;5050417;28;20339;-70
2021/06/10 05:14:35;;;;;;;11.87;8.37;;;;;;;-139.38;100.00;63230.50;5046564;28;20227;-70
2021/06/10 05:18:00;;;;;;;10.87;8.40;;;;;;;-139.38;100.00;63230.50;5050544;28;20202;-69
2021/06/10 05:21:26;;;;;;;12.20;9.07;;;;;;;-139.38;100.00;63230.50;5055956;28;20570;-70
2021/06/10 05:24:51;;;;;;;9.40;7.80;;;;;;;-139.38;100.00;63230.50;5046695;28;20213;-72
2021/06/10 05:28:18;;;;;;;10.40;7.60;;;;;;;-139.38;100.00;63230.50;5047172;28;20214;-74
2021/06/10 05:31:43;;;;;;;9.43;7.53;;;;;;;-139.38;100.00;63230.50;5050399;28;20201;-73
2021/06/10 05:35:09;;;;;;;14.43;7.87;;;;;;;-139.38;100.00;63230.50;5051654;28;20209;-75
2021/06/10 05:38:34;;;;;;;9.87;7.93;;;;;;;-139.38;100.00;63230.50;5045996;28;20198;-70
2021/06/10 05:42:00;;;;;;;11.93;8.47;;;;;;;-139.38;100.00;63230.50;5045115;28;20216;-70
2021/06/10 05:45:27;;;;;;;10.83;8.50;;;;;;;-139.38;100.00;63230.50;5050023;28;20281;-69
2021/06/10 05:48:52;;;;;;;10.68;8.68;;;;;;;-139.38;100.00;63230.50;5047318;28;20554;-77
2021/06/10 05:52:17;;;;;;;9.60;8.43;;;;;;;-139.38;100.00;63230.50;5047341;28;20279;-75
2021/06/10 05:55:45;;;;;;;9.70;7.53;;;;;;;-139.38;100.00;63230.50;5049498;28;20214;-71
2021/06/10 05:59:12;;;;;;;9.43;7.43;;;;;;;-139.38;100.00;63230.50;5050516;28;20230;-71
2021/06/10 06:02:38;;;;;;;11.90;7.90;;;;;;;-139.38;100.00;63230.50;5045054;28;20240;-73
2021/06/10 06:06:04;;;;;;;13.33;7.53;;;;;;;-139.38;100.00;63230.50;5049606;28;20228;-77
2021/06/10 06:09:29;;;;;;;10.20;7.60;;;;;;;-139.38;100.00;63230.50;5049232;28;20225;-73
2021/06/10 06:12:57;;;;;;;10.07;7.03;;;;;;;-139.38;100.00;63230.50;5049665;28;20228;-72
2021/06/10 06:16:22;;;;;;;10.90;7.00;;;;;;;-139.38;100.00;63230.50;5055922;28;20213;-70
2021/06/10 06:19:49;;;;;;;13.70;7.40;;;;;;;-139.38;100.00;63230.50;5047747;28;20223;-71
2021/06/10 06:23:15;;;;;;;9.73;6.73;;;;;;;-139.38;100.00;63230.50;5051297;28;20224;-69
2021/06/10 06:26:41;;;;;;;11.97;7.10;;;;;;;-139.38;100.00;63230.50;5050462;28;20202;-70
2021/06/10 06:30:07;;;;;;;13.47;6.67;;;;;;;-139.38;100.00;63230.50;5049538;28;20681;-70
2021/06/10 06:33:34;;;;;;;11.67;6.97;;;;;;;-139.38;100.00;63230.50;5053382;28;20280;-71
2021/06/10 06:37:00;;;;;;;9.93;6.47;;;;;;;-139.38;100.00;63230.50;5062468;28;20239;-73
2021/06/10 06:40:26;;;;;;;8.63;6.40;;;;;;;-139.38;100.00;63230.50;5055053;28;20231;-72
2021/06/10 06:43:52;;;;;;;7.37;6.47;;;;;;;-139.38;100.00;63230.50;5051140;28;20201;-70
2021/06/10 06:47:17;;;;;;;8.60;6.23;;;;;;;-139.38;100.00;63230.50;5050688;28;20215;-70
2021/06/10 06:50:44;;;;;;;8.33;5.73;;;;;;;-139.38;100.00;63230.50;5049268;28;20290;-70
2021/06/10 06:54:13;;;;;;;7.47;5.97;;;;;;;-139.38;100.00;63230.50;5052681;28;20234;-72
2021/06/10 06:57:39;;;;;;;6.90;6.13;;;;;;;-139.38;100.00;63230.50;5045837;28;20252;-70
2021/06/10 07:01:05;;;;;;;7.70;6.50;;;;;;;-139.38;100.00;63230.50;5050645;28;20224;-72
2021/06/10 07:04:30;;;;;;;9.93;6.10;;;;;;;-139.38;100.00;63230.50;5050218;28;20199;-71
2021/06/10 07:07:55;;;;;;;9.77;6.43;;;;;;;-139.38;100.00;63230.50;5053631;28;20560;-71
2021/06/10 07:11:22;;;;;;;7.27;6.23;;;;;;;-139.38;100.00;63230.50;5052614;28;20203;-72
2021/06/10 07:14:47;;;;;;;8.27;6.53;;;;;;;-139.38;100.00;63230.50;5051753;28;20238;-72
2021/06/10 07:18:13;;;;;;;10.37;6.27;;;;;;;-139.38;100.00;63230.50;5048833;28;20775;-72
2021/06/10 07:21:42;;;;;;;9.27;6.63;;;;;;;-139.38;100.00;63230.50;5049500;28;20206;-73
2021/06/10 07:25:08;;;;;;;8.97;6.93;;;;;;;-139.38;100.00;63230.50;5042946;28;20286;-74
2021/06/10 07:28:34;;;;;;;8.80;6.57;;;;;;;-139.38;100.00;63230.50;5049451;28;20217;-75
2021/06/10 07:32:00;;;;;;;9.43;7.20;;;;;;;-139.38;100.00;63230.50;5048121;28;20205;-75
2021/06/10 07:35:25;;;;;;;7.23;6.53;;;;;;;-139.38;100.00;63230.50;5055322;28;20210;-75
2021/06/10 07:38:51;;;;;;;8.20;6.23;;;;;;;-139.38;100.00;63230.50;5050556;28;20228;-75
2021/06/10 07:42:16;;;;;;;9.33;6.77;;;;;;;-139.38;100.00;63230.50;5051008;28;20213;-74
2021/06/10 07:45:43;;;;;;;9.73;6.97;;;;;;;-139.38;100.00;63230.50;5045708;28;20664;-74
2021/06/10 07:49:09;;;;;;;11.53;7.80;;;;;;;-139.38;100.00;63230.50;5047506;28;20723;-77
2021/06/10 07:52:34;;;;;;;9.00;7.10;;;;;;;-139.38;100.00;63230.50;5048228;28;20728;-76
2021/06/10 07:56:00;;;;;;;8.20;6.73;;;;;;;-139.38;100.00;63230.50;5046748;28;20812;-77
2021/06/10 07:59:26;;;;;;;8.90;6.43;;;;;;;-139.38;100.00;63230.50;5047204;28;20229;-75
2021/06/10 08:02:57;;;;;;;9.50;7.05;;;;;;;-139.38;100.00;63230.50;5043237;28;20209;-74
2021/06/10 08:06:23;;;;;;;13.00;7.90;;;;;;;-139.38;100.00;63230.50;5048623;28;20208;-73
2021/06/10 08:09:49;;;;;;;10.25;7.43;;;;;;;-139.38;100.00;63230.50;5053448;28;20231;-74
2021/06/10 08:13:16;;;;;;;10.80;8.03;;;;;;;-139.38;100.00;63230.50;5060505;28;20208;-74
2021/06/10 08:16:42;;;;;;;10.60;7.80;;;;;;;-139.38;100.00;63230.50;5053576;28;20216;-73
2021/06/10 08:20:11;;;;;;;10.30;7.77;;;;;;;-139.38;100.00;63230.50;5046178;28;20987;-73
2021/06/10 08:23:37;;;;;;;12.63;7.20;;;;;;;-139.38;100.00;63230.50;5045215;28;20235;-74
2021/06/10 08:27:03;;;;;;;7.95;6.93;;;;;;;-139.38;100.00;63230.50;5016185;28;20209;-74
2021/06/10 08:30:28;;;;;;;9.80;7.15;;;;;;;-139.38;100.00;63230.50;5012173;28;20237;-75
2021/06/10 08:33:54;;;;;;;9.50;7.47;;;;;;;-139.38;100.00;63230.50;5008767;28;20784;-75
2021/06/10 08:37:21;;;;;;;9.95;7.13;;;;;;;-139.38;100.00;63230.50;5011856;28;20671;-74
2021/06/10 08:40:46;;;;;;;10.07;7.55;;;;;;;-139.38;100.00;63230.50;5013269;28;20199;-74
2021/06/10 08:44:14;;;;;;;9.57;6.93;;;;;;;-139.38;100.00;63230.50;5013466;28;20249;-75
2021/06/10 08:47:40;;;;;;;7.97;6.80;;;;;;;-139.38;100.00;63230.50;5007900;28;20286;-74
2021/06/10 08:51:09;;;;;;;9.98;6.70;;;;;;;-139.38;100.00;63230.50;5009659;28;20214;-73
2021/06/10 08:54:36;;;;;;;12.85;8.00;;;;;;;-139.38;100.00;63230.50;5011221;28;20314;-74
2021/06/10 08:58:01;;;;;;;8.73;7.25;;;;;;;-139.38;100.00;63230.50;5009433;28;20226;-73
2021/06/10 09:01:29;;;;;;;10.98;7.70;;;;;;;-139.38;100.00;63230.50;5014474;28;20211;-75
2021/06/10 09:05:00;;;;;;;8.98;7.60;;;;;;;-139.38;100.00;63230.50;5013057;28;20198;-73
2021/06/10 09:08:32;;;;;;;9.57;7.47;;;;;;;-139.38;100.00;63230.50;5013470;28;20199;-75
2021/06/10 09:12:07;;;;;;;10.05;7.88;;;;;;;-139.38;100.00;63230.50;5007052;28;20664;-72
2021/06/10 09:15:53;;;;;;;8.63;6.65;;;;;;;-139.38;100.00;63230.50;5008605;28;20231;-74
2021/06/10 09:19:30;;;;;;;12.15;7.20;;;;;;;-139.38;100.00;63230.50;5014384;28;20231;-74
2021/06/10 09:23:10;;;;;;;7.72;6.90;;;;;;;-139.38;100.00;63230.50;5006734;28;20664;-74
2021/06/10 09:26:37;;;;;;;7.28;6.57;;;;;;;-139.38;100.00;63230.50;5014326;28;20310;-73
2021/06/10 09:30:04;;;;;;;11.68;7.25;;;;;;;-139.38;100.00;63230.50;5022027;28;20245;-73
2021/06/10 09:33:37;;;;;;;8.43;6.97;;;;;;;-139.38;100.00;63230.50;5024548;28;21412;-71
2021/06/10 09:37:03;;;;;;;9.63;6.90;;;;;;;-139.38;100.00;63230.50;5009650;28;20573;-74
2021/06/10 09:40:29;;;;;;;20.02;8.82;;;;;;;-139.38;100.00;63230.50;5003693;28;20223;-74
2021/06/10 09:43:57;;;;;;;8.38;7.28;;;;;;;-139.38;100.00;63230.50;5004985;28;20861;-75
2021/06/10 09:47:30;;;;;;;8.35;7.03;;;;;;;-139.38;100.00;63230.50;5001870;28;20211;-72
2021/06/10 09:50:56;;;;;;;9.05;7.65;;;;;;;-139.38;100.00;63230.50;5004136;28;20218;-74
2021/06/10 09:54:37;;;;;;;9.77;8.77;;;;;;;-139.38;100.00;63230.50;5009582;28;20279;-74
2021/06/10 09:58:18;;;;;;;9.70;8.70;;;;;;;-139.38;100.00;63230.50;5009097;28;20203;-73
2021/06/10 10:01:49;;;;;;;11.18;9.02;;;;;;;-139.38;100.00;63230.50;5012357;28;20202;-75
2021/06/10 10:05:15;;;;;;;11.35;9.68;;;;;;;-139.38;100.00;63230.50;5012494;28;20250;-76
2021/06/10 10:08:40;;;;;;;11.43;10.10;;;;;;;-139.38;100.00;63230.50;5011121;28;20219;-74
2021/06/10 10:12:07;;;;;;;11.45;9.75;;;;;;;-139.38;100.00;63230.50;5020316;28;20198;-74
2021/06/10 10:15:34;;;;;;;12.18;9.90;;;;;;;-139.38;100.00;63230.50;5016039;28;20241;-74
2021/06/10 10:19:02;;;;;;;10.73;9.57;;;;;;;-139.38;100.00;63230.50;5014976;28;20227;-73
2021/06/10 10:22:30;;;;;;;12.93;9.90;;;;;;;-139.38;100.00;63230.50;5019505;28;20214;-74
2021/06/10 10:25:58;;;;;;;10.70;8.82;;;;;;;-139.38;100.00;63230.50;5072402;22;20237;-74
2021/06/10 10:29:25;;;;;;;10.95;8.63;;;;;;;-139.38;100.00;63230.50;5069837;28;20248;-73
2021/06/10 10:32:52;;;;;;;11.77;9.43;;;;;;;-139.38;100.00;63230.50;5072864;28;20258;-74
2021/06/10 10:36:26;;;;;;;10.02;8.90;;;;;;;-139.38;100.00;63230.50;5071767;28;20593;-73
2021/06/10 10:39:58;;;;;;;10.68;9.57;;;;;;;-139.38;100.00;63230.50;5068955;28;20216;-75
2021/06/10 10:43:25;;;;;;;10.80;9.80;;;;;;;-139.38;100.00;63230.50;5079587;28;20673;-77
2021/06/10 10:47:08;;;;;;;12.18;9.60;;;;;;;-139.38;100.00;63230.50;5072922;28;20608;-76
2021/06/10 10:50:41;;;;;;;10.52;9.52;;;;;;;-139.38;100.00;63230.50;5066666;28;20228;-76
2021/06/10 10:54:28;;;;;;;9.02;8.10;;;;;;;-139.38;100.00;63230.50;5072048;28;20347;-78
2021/06/10 10:57:58;;;;;;;13.98;10.07;;;;;;;-139.38;100.00;63230.50;5071925;28;20618;-77
2021/06/10 11:01:43;;;;;;;12.68;10.07;;;;;;;-139.38;100.00;63230.50;5071474;28;20688;-77
2021/06/10 11:05:30;;;;;;;11.10;10.00;;;;;;;-139.38;100.00;63230.50;5069882;28;20270;-74
2021/06/10 11:09:00;;;;;;;12.05;9.82;;;;;;;-139.38;100.00;63230.50;5071829;28;20217;-76
2021/06/10 11:12:50;;;;;;;12.18;10.95;;;;;;;-139.38;100.00;63230.50;5077441;28;20262;-77
2021/06/10 11:16:51;;;;;;;12.48;10.35;;;;;;;-139.38;100.00;63230.50;5070417;28;20304;-75
2021/06/10 11:20:25;;;;;;;11.60;9.63;;;;;;;-139.38;100.00;63230.50;5070960;28;20240;-77
2021/06/10 11:24:05;;;;;;;10.98;9.18;;;;;;;-139.38;100.00;63230.50;5073456;28;20251;-76
2021/06/10 11:27:45;;;;;;;9.82;8.82;;;;;;;-139.38;100.00;63230.50;5071633;28;20211;-77
2021/06/10 11:31:28;;;;;;;10.18;9.18;;;;;;;-139.38;100.00;63230.50;5074727;28;20216;-77
2021/06/10 11:34:56;;;;;;;11.00;9.82;;;;;;;-139.38;100.00;63230.50;5072421;28;20837;-74
2021/06/10 11:38:23;;;;;;;25.20;11.98;;;;;;;-139.38;100.00;63230.50;5077557;28;20281;-75
2021/06/10 11:41:50;;;;;;;13.55;11.40;;;;;;;-139.38;100.00;63230.50;5069139;28;20203;-74
2021/06/10 11:45:20;;;;;;;11.98;10.57;;;;;;;-139.38;100.00;63230.50;5069013;28;20270;-74
2021/06/10 11:48:48;;;;;;;10.93;9.82;;;;;;;-139.38;100.00;63230.50;5069220;28;20221;-75
2021/06/10 11:52:19;;;;;;;11.10;9.68;;;;;;;-139.38;100.00;63230.50;5071774;28;20224;-77
2021/06/10 11:56:00;;;;;;;11.25;10.15;;;;;;;-139.38;100.00;63230.50;5068831;28;20229;-77
2021/06/10 11:59:29;;;;;;;11.18;9.80;;;;;;;-139.38;100.00;63230.50;5078095;28;20312;-78
2021/06/10 12:02:58;;;;;;;11.13;9.00;;;;;;;-139.38;100.00;63230.50;5069285;28;20293;-78
2021/06/10 12:06:25;;;;;;;11.25;9.00;;;;;;;-139.38;100.00;63230.50;5073166;28;20196;-76
2021/06/10 12:09:51;;;;;;;11.25;8.32;;;;;;;-139.38;100.00;63230.50;5063618;28;20271;-77
2021/06/10 12:13:31;;;;;;;8.43;7.60;;;;;;;-139.38;100.00;63230.50;5070453;28;20220;-77
2021/06/10 12:17:00;;;;;;;9.20;8.30;;;;;;;-139.38;100.00;63230.50;5074603;28;20587;-77
2021/06/10 12:20:26;;;;;;;8.25;7.38;;;;;;;-139.38;100.00;63230.50;5071281;28;20232;-76
2021/06/10 12:23:58;;;;;;;11.80;8.35;;;;;;;-139.38;100.00;63230.50;5068739;28;20314;-77
2021/06/10 12:27:24;;;;;;;10.40;7.90;;;;;;;-139.38;100.00;63230.50;5070414;28;20200;-76
2021/06/10 12:30:49;;;;;;;9.18;6.72;;;;;;;-139.38;100.00;63230.50;5071023;28;20205;-76
2021/06/10 12:34:16;;;;;;;9.30;7.55;;;;;;;-139.38;100.00;63230.50;5069711;28;20254;-76
2021/06/10 12:37:42;;;;;;;7.00;6.30;;;;;;;-139.38;100.00;63230.50;5068068;28;20204;-76
2021/06/10 12:41:14;;;;;;;10.43;6.93;;;;;;;-139.38;100.00;63230.50;5070198;28;20943;-75
2021/06/10 12:44:40;;;;;;;8.07;6.72;;;;;;;-139.38;100.00;63230.50;5069739;28;20213;-78
2021/06/10 12:48:22;;;;;;;7.80;7.00;;;;;;;-139.38;100.00;63230.50;5074674;28;20215;-74
2021/06/10 12:51:48;;;;;;;8.43;6.93;;;;;;;-139.38;100.00;63230.50;5070730;28;20200;-76
2021/06/10 12:55:16;;;;;;;7.60;6.13;;;;;;;-139.38;100.00;63230.50;5070092;28;20233;-76
2021/06/10 12:58:49;;;;;;;7.40;6.57;;;;;;;-139.38;100.00;63230.50;5069809;28;20720;-76
2021/06/10 13:02:18;;;;;;;7.18;6.10;;;;;;;-139.38;100.00;63230.50;5070924;28;20292;-76
2021/06/10 13:05:44;;;;;;;7.35;6.45;;;;;;;-139.38;100.00;63230.50;5071544;28;20192;-77
2021/06/10 13:09:22;;;;;;;7.55;6.13;;;;;;;-139.38;100.00;63230.50;5070232;28;20232;-77
2021/06/10 13:13:09;;;;;;;9.43;6.93;;;;;;;-139.38;100.00;63230.50;5071083;28;20196;-75
2021/06/10 13:16:50;;;;;;;7.72;6.93;;;;;;;-139.38;100.00;63230.50;5071246;28;20248;-75
2021/06/10 13:20:44;;;;;;;9.05;7.25;;;;;;;-139.38;100.00;63230.50;5068667;28;20316;-74
2021/06/10 13:24:12;;;;;;;8.07;6.07;;;;;;;-139.38;100.00;63230.50;5078638;28;20197;-79
2021/06/10 13:27:39;;;;;;;6.03;5.38;;;;;;;-139.38;100.00;63230.50;5071542;28;20297;-81
2021/06/10 13:31:18;;;;;;;8.55;6.20;;;;;;;-139.38;100.00;63230.50;5074131;28;20209;-80
2021/06/10 13:34:55;;;;;;;7.40;6.70;;;;;;;-139.38;100.00;63230.50;5071791;28;20193;-81
2021/06/10 13:38:20;;;;;;;9.27;7.35;;;;;;;-139.38;100.00;63230.50;5076948;28;20213;-81
2021/06/10 13:41:46;;;;;;;6.90;6.20;;;;;;;-139.38;100.00;63230.50;5077210;28;20241;-82
2021/06/10 13:45:13;;;;;;;7.00;6.30;;;;;;;-139.38;100.00;63230.50;5071147;28;20217;-79
2021/06/10 13:48:39;;;;;;;6.72;5.55;;;;;;;-139.38;100.00;63230.50;5077576;28;20247;-81
2021/06/10 13:52:05;;;;;;;6.57;5.97;;;;;;;-139.38;100.00;63230.50;5067102;28;20853;-77
2021/06/10 13:55:30;;;;;;;6.53;5.70;;;;;;;-139.38;100.00;63230.50;5068212;28;20803;-75
2021/06/10 13:58:56;;;;;;;9.23;6.72;;;;;;;-139.38;100.00;63230.50;5064726;28;20225;-76
2021/06/10 14:02:22;;;;;;;7.60;6.18;;;;;;;-139.38;100.00;63230.50;5068263;28;20562;-75
2021/06/10 14:05:48;;;;;;;6.13;5.40;;;;;;;-139.38;100.00;63230.50;5069203;28;20300;-72
2021/06/10 14:09:13;;;;;;;6.40;5.50;;;;;;;-139.38;100.00;63230.50;5068530;28;20225;-72
2021/06/10 14:12:39;;;;;;;6.85;6.15;;;;;;;-139.38;100.00;63230.50;5069523;28;20250;-72
2021/06/10 14:16:05;;;;;;;13.10;5.95;;;;;;;-139.38;100.00;63230.50;5066793;28;20202;-72
2021/06/10 14:19:31;;;;;;;6.20;5.55;;;;;;;-139.38;100.00;63230.50;5068006;28;20253;-72
2021/06/10 14:22:57;;;;;;;8.05;5.90;;;;;;;-139.38;100.00;63230.50;5064172;28;20564;-72
2021/06/10 14:26:22;;;;;;;6.40;5.53;;;;;;;-139.38;100.00;63230.50;5067358;28;20592;-71
2021/06/10 14:29:49;;;;;;;5.82;4.72;;;;;;;-139.38;100.00;63230.50;5065515;28;20692;-71
2021/06/10 14:33:15;;;;;;;6.25;4.93;;;;;;;-139.38;100.00;63230.50;5063231;28;20205;-72
2021/06/10 14:36:41;;;;;;;5.95;5.43;;;;;;;-139.38;100.00;63230.50;5070705;28;20232;-72
2021/06/10 14:40:08;;;;;;;6.60;6.00;;;;;;;-139.38;100.00;63230.50;5072925;28;20229;-72
2021/06/10 14:43:33;;;;;;;7.03;5.18;;;;;;;-139.38;100.00;63230.50;5073390;28;20201;-73
2021/06/10 14:46:58;;;;;;;7.95;4.85;;;;;;;-139.38;100.00;63230.50;5072932;28;20204;-72
2021/06/10 14:50:24;;;;;;;8.52;5.30;;;;;;;-139.38;100.00;63230.50;5071800;28;20228;-69
2021/06/10 14:53:50;;;;;;;8.00;7.18;;;;;;;-139.38;100.00;63230.50;5074225;28;20201;-71
2021/06/10 14:57:16;;;;;;;10.73;9.05;;;;;;;-139.38;100.00;63230.50;5088731;28;20312;-70
2021/06/10 15:00:41;;;;;;;10.25;8.18;;;;;;;-139.38;100.00;63230.50;5085737;28;20235;-71
2021/06/10 15:04:06;;;;;;;11.02;8.50;;;;;;;-139.38;100.00;63230.50;5081242;28;20224;-71
2021/06/10 15:07:31;;;;;;;9.45;7.93;;;;;;;-139.38;100.00;63230.50;5076095;28;20247;-70
2021/06/10 15:10:58;;;;;;;7.60;6.20;;;;;;;-139.38;100.00;63230.50;5072873;28;20208;-71
2021/06/10 15:14:23;;;;;;;10.43;6.28;;;;;;;-139.38;100.00;63230.50;5071259;28;20216;-72
2021/06/10 15:17:49;;;;;;;10.68;7.55;;;;;;;-139.38;100.00;63230.50;5072220;28;20867;-72
2021/06/10 15:21:14;;;;;;;22.15;8.70;;;;;;;-139.38;100.00;63230.50;5071589;28;20570;-71
2021/06/10 15:24:39;;;;;;;10.88;8.40;;;;;;;-139.38;100.00;63230.50;5070552;28;20271;-72
2021/06/10 15:28:06;;;;;;;23.48;8.25;;;;;;;-139.38;100.00;63230.50;5071239;28;20735;-72
2021/06/10 15:31:33;;;;;;;9.07;7.55;;;;;;;-139.38;100.00;63230.50;5071647;28;20224;-71
2021/06/10 15:34:58;;;;;;;36.05;9.88;;;;;;;-139.38;100.00;63230.50;5066279;28;20193;-70
2021/06/10 15:38:23;;;;;;;7.65;6.95;;;;;;;-139.38;100.00;63230.50;5070679;28;20224;-72